createdAt,value
2019-01-27T00:00:58.732Z,4.83
2019-01-27T00:03:28.173Z,4.43
2019-01-27T00:05:57.580Z,3.90
2019-01-27T00:08:27.017Z,4.00
2019-01-27T00:10:57.683Z,3.80
2019-01-27T00:13:42.852Z,4.00
2019-01-27T00:16:27.658Z,3.70
2019-01-27T00:18:57.059Z,4.00
2019-01-27T00:21:26.468Z,4.43
2019-01-27T00:23:55.864Z,3.73
2019-01-27T00:26:25.304Z,3.70
2019-01-27T00:28:54.750Z,3.77
2019-01-27T00:31:24.181Z,3.70
2019-01-27T00:34:01.466Z,3.70
2019-01-27T00:36:30.865Z,4.17
2019-01-27T00:39:00.317Z,4.17
2019-01-27T00:41:29.844Z,4.17
2019-01-27T00:44:11.108Z,4.30
2019-01-27T00:46:40.666Z,4.57
2019-01-27T00:49:10.118Z,5.10
2019-01-27T00:51:51.663Z,5.07
2019-01-27T00:54:21.152Z,5.10
2019-01-27T00:56:50.532Z,4.40
2019-01-27T00:59:20.361Z,4.57
2019-01-27T01:02:09.200Z,3.77
2019-01-27T01:04:38.711Z,4.30
2019-01-27T01:07:08.163Z,4.20
2019-01-27T01:09:37.568Z,4.07
2019-01-27T01:12:07.152Z,3.90
2019-01-27T01:14:36.574Z,3.93
2019-01-27T01:17:06.059Z,3.40
2019-01-27T01:19:36.187Z,3.63
2019-01-27T01:22:05.656Z,3.70
2019-01-27T01:24:35.044Z,4.03
2019-01-27T01:27:22.481Z,4.03
2019-01-27T01:29:55.396Z,4.00
2019-01-27T01:32:24.828Z,4.60
2019-01-27T01:34:54.309Z,4.80
2019-01-27T01:37:23.815Z,5.07
2019-01-27T01:39:55.793Z,5.10
2019-01-27T01:42:25.602Z,4.77
2019-01-27T01:44:57.930Z,4.90
2019-01-27T01:47:27.365Z,4.80
2019-01-27T01:49:56.820Z,5.03
2019-01-27T01:52:26.237Z,4.53
2019-01-27T01:54:55.724Z,5.20
2019-01-27T01:57:28.163Z,4.80
2019-01-27T01:59:57.620Z,4.27
2019-01-27T02:02:27.048Z,4.73
2019-01-27T02:04:56.437Z,3.80
2019-01-27T02:07:25.865Z,4.30
2019-01-27T02:09:55.277Z,3.73
2019-01-27T02:12:27.585Z,3.80
2019-01-27T02:15:02.928Z,4.10
2019-01-27T02:17:40.026Z,4.30
2019-01-27T02:20:09.470Z,3.83
2019-01-27T02:22:38.883Z,4.47
2019-01-27T02:25:08.283Z,4.10
2019-01-27T02:27:40.656Z,3.90
2019-01-27T02:30:12.023Z,4.00
2019-01-27T02:32:41.458Z,3.70
2019-01-27T02:35:10.858Z,4.23
2019-01-27T02:37:40.315Z,4.43
2019-01-27T02:40:30.694Z,5.20
2019-01-27T02:43:00.111Z,5.03
2019-01-27T02:45:29.568Z,4.40
2019-01-27T02:48:07.171Z,4.70
2019-01-27T02:50:36.836Z,4.97
2019-01-27T02:53:06.259Z,5.23
2019-01-27T02:55:35.745Z,5.30
2019-01-27T02:58:14.148Z,5.50
2019-01-27T03:00:43.610Z,6.00
2019-01-27T03:03:15.672Z,5.90
2019-01-27T03:05:46.679Z,5.60
2019-01-27T03:08:16.157Z,6.90
2019-01-27T03:10:45.663Z,6.03
2019-01-27T03:13:33.374Z,6.00
2019-01-27T03:16:06.083Z,6.20
2019-01-27T03:18:38.417Z,5.70
2019-01-27T03:21:07.827Z,6.30
2019-01-27T03:23:37.324Z,7.13
2019-01-27T03:26:06.829Z,7.03
2019-01-27T03:28:36.238Z,6.73
2019-01-27T03:31:05.669Z,7.27
2019-01-27T03:33:35.115Z,8.10
2019-01-27T03:36:04.607Z,8.03
2019-01-27T03:38:34.015Z,8.90
2019-01-27T03:41:08.153Z,7.90
2019-01-27T03:43:37.599Z,7.97
2019-01-27T03:46:07.046Z,7.77
2019-01-27T03:48:36.473Z,7.77
2019-01-27T03:51:05.897Z,7.33
2019-01-27T03:53:35.353Z,6.90
2019-01-27T03:56:07.520Z,5.90
2019-01-27T03:58:37.242Z,6.87
2019-01-27T04:01:15.880Z,5.53
2019-01-27T04:03:45.321Z,5.23
2019-01-27T04:06:14.730Z,4.90
2019-01-27T04:08:44.128Z,4.10
2019-01-27T04:11:15.935Z,3.80
2019-01-27T04:13:46.619Z,3.43
2019-01-27T04:16:16.123Z,2.93
2019-01-27T04:18:45.535Z,3.10
2019-01-27T04:21:14.931Z,2.60
2019-01-27T04:23:44.445Z,2.70
2019-01-27T04:26:13.843Z,2.57
2019-01-27T04:28:43.411Z,2.33
2019-01-27T04:31:35.293Z,2.00
2019-01-27T04:34:04.799Z,2.23
2019-01-27T04:36:37.311Z,1.90
2019-01-27T04:39:20.087Z,1.73
2019-01-27T04:41:49.484Z,1.93
2019-01-27T04:44:50.431Z,1.73
2019-01-27T04:47:19.835Z,2.27
2019-01-27T04:49:49.242Z,2.60
2019-01-27T04:52:18.715Z,2.60
2019-01-27T04:54:48.144Z,3.13
2019-01-27T04:57:17.553Z,3.70
2019-01-27T04:59:46.952Z,4.10
2019-01-27T05:02:22.299Z,4.00
2019-01-27T05:04:53.333Z,4.00
2019-01-27T05:07:24.328Z,3.73
2019-01-27T05:10:01.774Z,3.30
2019-01-27T05:12:31.225Z,3.17
2019-01-27T05:15:07.071Z,2.90
2019-01-27T05:17:36.536Z,2.50
2019-01-27T05:20:08.803Z,2.50
2019-01-27T05:22:38.366Z,2.97
2019-01-27T05:25:10.945Z,2.53
2019-01-27T05:27:40.442Z,2.50
2019-01-27T05:30:12.986Z,2.10
2019-01-27T05:32:45.183Z,1.87
2019-01-27T05:35:14.547Z,1.80
2019-01-27T05:37:46.698Z,2.10
2019-01-27T05:40:17.764Z,1.97
2019-01-27T05:42:52.189Z,1.60
2019-01-27T05:45:24.457Z,1.40
2019-01-27T05:48:04.609Z,1.50
2019-01-27T05:50:34.033Z,1.30
2019-01-27T05:53:25.467Z,1.90
2019-01-27T05:55:54.886Z,2.30
2019-01-27T05:58:28.823Z,3.10
2019-01-27T06:00:58.291Z,3.37
2019-01-27T06:03:27.696Z,3.10
2019-01-27T06:05:57.098Z,3.10
2019-01-27T06:08:26.617Z,3.17
2019-01-27T06:10:56.042Z,3.20
2019-01-27T06:13:25.445Z,3.00
2019-01-27T06:15:54.925Z,3.30
2019-01-27T06:18:24.358Z,3.20
2019-01-27T06:20:56.431Z,2.97
2019-01-27T06:23:25.826Z,3.00
2019-01-27T06:25:55.308Z,2.63
2019-01-27T06:28:24.673Z,2.47
2019-01-27T06:30:54.138Z,2.57
2019-01-27T06:33:29.693Z,1.93
2019-01-27T06:35:59.187Z,1.70
2019-01-27T06:38:28.590Z,1.57
2019-01-27T06:41:01.044Z,1.70
2019-01-27T06:43:30.472Z,1.40
2019-01-27T06:45:59.887Z,1.40
2019-01-27T06:48:30.932Z,1.20
2019-01-27T06:51:12.016Z,1.00
2019-01-27T06:53:41.787Z,1.13
2019-01-27T06:56:13.825Z,1.20
2019-01-27T06:58:49.730Z,1.07
2019-01-27T07:01:20.715Z,1.00
2019-01-27T07:03:53.243Z,0.80
2019-01-27T07:06:28.749Z,0.80
2019-01-27T07:09:00.034Z,1.40
2019-01-27T07:11:41.483Z,1.63
2019-01-27T07:14:12.493Z,2.33
2019-01-27T07:16:57.626Z,1.97
2019-01-27T07:19:36.969Z,2.10
2019-01-27T07:22:07.979Z,1.70
2019-01-27T07:24:45.215Z,2.00
2019-01-27T07:27:16.273Z,1.83
2019-01-27T07:29:47.307Z,1.40
2019-01-27T07:32:31.871Z,1.40
2019-01-27T07:35:02.942Z,1.97
2019-01-27T07:37:36.686Z,2.20
2019-01-27T07:40:11.006Z,2.30
2019-01-27T07:42:41.994Z,2.63
2019-01-27T07:45:15.956Z,2.47
2019-01-27T07:47:46.980Z,1.93
2019-01-27T07:50:24.099Z,1.50
2019-01-27T07:53:08.126Z,1.20
2019-01-27T07:55:57.579Z,1.40
2019-01-27T07:58:34.386Z,1.03
2019-01-27T08:01:09.994Z,1.40
2019-01-27T08:03:46.710Z,1.63
2019-01-27T08:06:17.700Z,1.53
2019-01-27T08:08:54.926Z,1.70
2019-01-27T08:11:29.501Z,1.50
2019-01-27T08:14:00.545Z,2.00
2019-01-27T08:17:09.089Z,1.63
2019-01-27T08:19:40.072Z,1.63
2019-01-27T08:22:18.368Z,1.73
2019-01-27T08:24:49.412Z,1.80
2019-01-27T08:27:22.094Z,1.60
2019-01-27T08:30:06.855Z,1.77
2019-01-27T08:32:37.841Z,1.50
2019-01-27T08:35:10.301Z,1.97
2019-01-27T08:37:41.268Z,1.60
2019-01-27T08:40:15.306Z,1.60
2019-01-27T08:42:46.364Z,1.50
2019-01-27T08:45:17.375Z,1.50
2019-01-27T08:47:46.838Z,1.60
2019-01-27T08:50:16.472Z,1.87
2019-01-27T08:52:46.023Z,1.40
2019-01-27T08:55:15.425Z,1.20
2019-01-27T08:57:57.364Z,1.80
2019-01-27T09:00:28.413Z,1.60
2019-01-27T09:02:59.509Z,1.90
2019-01-27T09:05:43.968Z,1.70
2019-01-27T09:08:17.770Z,1.93
2019-01-27T09:10:48.820Z,1.87
2019-01-27T09:13:19.979Z,1.60
2019-01-27T09:15:50.920Z,1.70
2019-01-27T09:18:23.282Z,1.40
2019-01-27T09:21:00.662Z,1.90
2019-01-27T09:23:45.118Z,1.73
2019-01-27T09:26:16.098Z,1.70
2019-01-27T09:28:52.217Z,1.50
2019-01-27T09:31:23.315Z,1.60
2019-01-27T09:34:03.944Z,1.77
2019-01-27T09:36:37.553Z,1.57
2019-01-27T09:39:23.577Z,1.63
2019-01-27T09:41:54.672Z,1.80
2019-01-27T09:44:25.710Z,1.83
2019-01-27T09:46:56.752Z,1.80
2019-01-27T09:49:27.760Z,1.70
2019-01-27T09:51:58.735Z,2.17
2019-01-27T09:54:29.907Z,2.30
2019-01-27T09:57:16.290Z,2.00
2019-01-27T09:59:47.313Z,2.00
2019-01-27T10:02:18.314Z,2.03
2019-01-27T10:04:53.901Z,2.33
2019-01-27T10:07:27.507Z,2.60
2019-01-27T10:09:58.564Z,2.20
2019-01-27T10:12:29.586Z,2.33
2019-01-27T10:15:00.583Z,2.10
2019-01-27T10:17:43.508Z,1.93
2019-01-27T10:20:14.609Z,2.33
2019-01-27T10:22:45.588Z,1.77
2019-01-27T10:25:16.637Z,1.87
2019-01-27T10:27:47.634Z,1.80
2019-01-27T10:30:37.253Z,1.50
2019-01-27T10:33:23.351Z,1.83
2019-01-27T10:36:12.681Z,1.73
2019-01-27T10:38:43.668Z,1.63
2019-01-27T10:41:23.866Z,1.53
2019-01-27T10:44:03.684Z,1.83
2019-01-27T10:46:46.774Z,2.03
2019-01-27T10:49:17.761Z,1.60
2019-01-27T10:51:48.792Z,1.67
2019-01-27T10:54:19.777Z,1.60
2019-01-27T10:56:50.806Z,2.20
2019-01-27T10:59:24.958Z,2.27
2019-01-27T11:02:14.013Z,1.80
2019-01-27T11:04:45.011Z,1.50
2019-01-27T11:07:16.049Z,1.37
2019-01-27T11:09:50.300Z,2.00
2019-01-27T11:12:21.302Z,1.60
2019-01-27T11:14:52.291Z,1.80
2019-01-27T11:17:24.964Z,1.50
2019-01-27T11:19:57.010Z,1.40
2019-01-27T11:22:29.421Z,1.63
2019-01-27T11:25:10.237Z,1.27
2019-01-27T11:27:53.868Z,1.53
2019-01-27T11:30:27.421Z,1.40
2019-01-27T11:33:07.011Z,1.70
2019-01-27T11:35:38.052Z,1.37
2019-01-27T11:38:13.400Z,1.20
2019-01-27T11:40:47.188Z,1.50
2019-01-27T11:43:22.196Z,1.37
2019-01-27T11:45:53.237Z,1.10
2019-01-27T11:48:26.902Z,1.20
2019-01-27T11:51:03.815Z,1.20
2019-01-27T11:53:33.268Z,1.33
2019-01-27T11:56:02.667Z,0.90
2019-01-27T11:58:37.735Z,1.30
2019-01-27T12:01:07.293Z,1.00
2019-01-27T12:03:40.404Z,1.30
2019-01-27T12:06:09.781Z,1.20
2019-01-27T12:08:39.218Z,1.00
2019-01-27T12:11:28.018Z,1.30
2019-01-27T12:13:57.435Z,1.63
2019-01-27T12:16:29.642Z,1.33
2019-01-27T12:18:59.210Z,1.47
2019-01-27T12:21:28.629Z,1.40
2019-01-27T12:23:58.271Z,1.30
2019-01-27T12:26:27.678Z,1.37
2019-01-27T12:28:57.104Z,1.43
2019-01-27T12:31:26.483Z,1.80
2019-01-27T12:33:55.901Z,1.80
2019-01-27T12:36:25.360Z,1.70
2019-01-27T12:38:54.750Z,1.60
2019-01-27T12:41:33.393Z,1.70
2019-01-27T12:44:13.628Z,1.73
2019-01-27T12:46:43.042Z,1.33
2019-01-27T12:49:24.601Z,1.60
2019-01-27T12:51:58.589Z,1.70
2019-01-27T12:54:28.048Z,1.70
2019-01-27T12:56:57.488Z,1.83
2019-01-27T12:59:26.885Z,2.13
2019-01-27T13:01:56.322Z,2.00
2019-01-27T13:04:25.822Z,2.37
2019-01-27T13:06:55.630Z,2.60
2019-01-27T13:09:25.453Z,2.20
2019-01-27T13:11:54.846Z,2.37
2019-01-27T13:14:24.251Z,2.07
2019-01-27T13:16:59.960Z,2.60
2019-01-27T13:19:29.401Z,2.73
2019-01-27T13:22:12.245Z,2.57
2019-01-27T13:24:40.548Z,2.40
2019-01-27T13:27:09.963Z,2.03
2019-01-27T13:29:42.084Z,2.60
2019-01-27T13:32:11.493Z,3.00
2019-01-27T13:34:40.942Z,2.03
2019-01-27T13:37:16.184Z,2.13
2019-01-27T13:39:45.648Z,2.10
2019-01-27T13:42:15.088Z,2.10
2019-01-27T13:44:44.535Z,2.60
2019-01-27T13:47:16.563Z,3.00
2019-01-27T13:50:07.071Z,4.00
2019-01-27T13:52:42.110Z,4.43
2019-01-27T13:55:26.040Z,4.27
2019-01-27T13:57:55.506Z,4.73
2019-01-27T14:00:28.074Z,6.57
2019-01-27T14:02:57.537Z,7.70
2019-01-27T14:05:27.040Z,6.40
2019-01-27T14:07:56.540Z,6.83
2019-01-27T14:10:27.538Z,6.23
2019-01-27T14:12:56.985Z,7.60
2019-01-27T14:15:29.058Z,9.40
2019-01-27T14:17:58.473Z,9.70
2019-01-27T14:20:27.902Z,8.93
2019-01-27T14:23:00.859Z,8.60
2019-01-27T14:25:30.777Z,7.47
2019-01-27T14:28:00.216Z,8.67
2019-01-27T14:30:44.977Z,7.43
2019-01-27T14:33:14.393Z,10.00
2019-01-27T14:35:43.861Z,12.47
2019-01-27T14:38:15.710Z,13.27
2019-01-27T14:40:48.366Z,11.77
2019-01-27T14:43:17.787Z,12.10
2019-01-27T14:45:47.205Z,10.43
2019-01-27T14:48:16.642Z,11.17
2019-01-27T14:50:48.153Z,10.00
2019-01-27T14:53:29.410Z,9.83
2019-01-27T14:55:59.002Z,11.47
2019-01-27T14:58:42.484Z,10.73
2019-01-27T15:01:14.553Z,13.53
2019-01-27T15:03:46.524Z,14.23
2019-01-27T15:06:15.194Z,7.90
2019-01-27T15:08:45.984Z,4.77
2019-01-27T15:11:15.509Z,4.47
2019-01-27T15:13:44.952Z,4.43
2019-01-27T15:16:14.408Z,4.00
2019-01-27T15:18:43.903Z,2.20
2019-01-27T15:21:16.205Z,2.50
2019-01-27T15:23:45.629Z,2.23
2019-01-27T15:26:15.107Z,2.40
2019-01-27T15:28:44.515Z,2.50
2019-01-27T15:31:15.549Z,2.20
2019-01-27T15:33:44.962Z,2.20
2019-01-27T15:36:17.140Z,2.40
2019-01-27T15:38:46.581Z,1.93
2019-01-27T15:41:15.988Z,2.20
2019-01-27T15:43:48.780Z,2.90
2019-01-27T15:46:16.525Z,2.63
2019-01-27T15:48:45.975Z,3.03
2019-01-27T15:51:15.426Z,3.10
2019-01-27T15:54:02.556Z,2.93
2019-01-27T15:56:36.610Z,2.90
2019-01-27T15:59:25.371Z,2.80
2019-01-27T16:01:59.605Z,3.30
2019-01-27T16:04:29.120Z,3.73
2019-01-27T16:06:58.500Z,4.30
2019-01-27T16:09:27.918Z,4.53
2019-01-27T16:11:57.367Z,4.03
2019-01-27T16:14:26.765Z,4.20
2019-01-27T16:16:56.183Z,4.27
2019-01-27T16:19:25.582Z,4.83
2019-01-27T16:21:55.194Z,5.00
2019-01-27T16:24:25.240Z,5.90
2019-01-27T16:26:55.059Z,4.90
2019-01-27T16:32:16.180Z,6.17
2019-01-27T16:34:45.562Z,5.70
2019-01-27T16:37:15.148Z,5.47
2019-01-27T16:39:44.554Z,5.80
2019-01-27T16:42:13.997Z,6.17
2019-01-27T16:44:46.062Z,5.00
2019-01-27T16:47:18.906Z,5.17
2019-01-27T16:50:07.541Z,5.53
2019-01-27T16:52:36.972Z,4.77
2019-01-27T16:55:13.176Z,4.83
2019-01-27T16:57:45.207Z,4.23
2019-01-27T17:00:17.787Z,4.23
2019-01-27T17:02:59.953Z,3.50
2019-01-27T17:05:29.501Z,4.13
2019-01-27T17:08:13.331Z,4.17
2019-01-27T17:10:45.542Z,4.13
2019-01-27T17:13:15.010Z,3.80
2019-01-27T17:15:44.411Z,3.73
2019-01-27T17:18:21.683Z,3.60
2019-01-27T17:20:51.131Z,3.67
2019-01-27T17:23:20.521Z,3.43
2019-01-27T17:25:53.636Z,3.40
2019-01-27T17:28:43.657Z,3.43
2019-01-27T17:31:17.645Z,3.20
2019-01-27T17:33:47.066Z,3.37
2019-01-27T17:36:16.484Z,3.13
2019-01-27T17:38:45.934Z,3.63
2019-01-27T17:41:15.337Z,3.23
2019-01-27T17:43:50.396Z,3.53
2019-01-27T17:46:42.855Z,3.40
2019-01-27T17:49:12.285Z,3.80
2019-01-27T17:51:43.355Z,4.37
2019-01-27T17:54:12.750Z,5.20
2019-01-27T17:57:01.877Z,4.93
2019-01-27T17:59:34.517Z,5.70
2019-01-27T18:02:05.576Z,5.90
2019-01-27T18:04:36.555Z,6.37
2019-01-27T18:07:07.572Z,5.33
2019-01-27T18:10:08.189Z,5.43
2019-01-27T18:12:51.828Z,5.73
2019-01-27T18:15:40.666Z,3.93
2019-01-27T18:18:10.133Z,4.37
2019-01-27T18:20:39.592Z,4.77
2019-01-27T18:23:20.839Z,4.87
2019-01-27T18:25:50.276Z,4.20
2019-01-27T18:28:19.788Z,4.60
2019-01-27T18:30:49.281Z,4.50
2019-01-27T18:33:18.679Z,5.30
2019-01-27T18:35:48.088Z,6.03
2019-01-27T18:38:17.505Z,6.57
2019-01-27T18:40:46.931Z,6.43
2019-01-27T18:43:16.346Z,6.30
2019-01-27T18:45:45.820Z,6.13
2019-01-27T18:48:15.253Z,5.80
2019-01-27T18:50:47.473Z,6.93
2019-01-27T18:53:18.619Z,6.07
2019-01-27T18:55:49.668Z,6.60
2019-01-27T18:58:33.592Z,7.23
2019-01-27T19:01:07.718Z,7.40
2019-01-27T19:03:41.395Z,7.10
2019-01-27T19:06:12.451Z,8.27
2019-01-27T19:08:46.259Z,8.57
2019-01-27T19:11:29.999Z,8.73
2019-01-27T19:14:27.838Z,8.57
2019-01-27T19:16:58.912Z,8.70
2019-01-27T19:19:29.973Z,9.63
2019-01-27T19:22:09.950Z,10.60
2019-01-27T19:24:41.030Z,11.07
2019-01-27T19:27:12.108Z,10.27
2019-01-27T19:30:02.706Z,9.10
2019-01-27T19:32:52.291Z,8.80
2019-01-27T19:35:24.903Z,8.17
2019-01-27T19:37:55.908Z,8.97
2019-01-27T19:40:26.923Z,8.30
2019-01-27T19:42:57.976Z,8.57
2019-01-27T19:45:47.045Z,9.43
2019-01-27T19:48:26.214Z,10.60
2019-01-27T19:51:16.563Z,9.57
2019-01-27T19:53:47.741Z,10.53
2019-01-27T19:56:18.679Z,10.20
2019-01-27T19:58:49.727Z,10.63
2019-01-27T20:01:20.847Z,10.93
2019-01-27T20:03:54.993Z,11.40
2019-01-27T20:06:25.999Z,10.33
2019-01-27T20:08:57.031Z,10.50
2019-01-27T20:11:28.062Z,11.57
2019-01-27T20:13:59.107Z,12.50
2019-01-27T20:16:30.202Z,16.07
2019-01-27T20:19:01.237Z,16.00
2019-01-27T20:24:49.819Z,15.27
2019-01-27T20:27:31.145Z,17.47
2019-01-27T20:30:02.151Z,15.77
2019-01-27T20:32:33.172Z,14.53
2019-01-27T20:35:20.202Z,13.07
2019-01-27T20:37:51.200Z,10.97
2019-01-27T20:40:24.839Z,11.00
2019-01-27T20:42:55.838Z,11.93
2019-01-27T20:45:26.856Z,14.43
2019-01-27T20:47:57.844Z,15.07
2019-01-27T20:50:28.913Z,13.17
2019-01-27T20:52:59.931Z,13.60
2019-01-27T20:55:33.593Z,12.97
2019-01-27T20:58:04.697Z,13.83
2019-01-27T21:00:37.336Z,12.77
2019-01-27T21:03:26.294Z,11.87
2019-01-27T21:05:57.353Z,12.07
2019-01-27T21:08:28.332Z,12.30
2019-01-27T21:10:59.367Z,10.60
2019-01-27T21:13:30.357Z,10.90
2019-01-27T21:16:24.556Z,12.33
2019-01-27T21:19:04.143Z,12.33
2019-01-27T21:21:53.002Z,12.80
2019-01-27T21:24:25.061Z,12.70
2019-01-27T21:27:12.997Z,12.80
2019-01-27T21:29:42.401Z,11.87
2019-01-27T21:32:14.847Z,13.07
2019-01-27T21:34:44.283Z,13.00
2019-01-27T21:37:17.426Z,12.90
2019-01-27T21:39:46.852Z,12.73
2019-01-27T21:42:16.393Z,13.03
2019-01-27T21:45:07.476Z,12.27
2019-01-27T21:47:36.948Z,13.53
2019-01-27T21:50:09.832Z,13.23
2019-01-27T21:52:39.252Z,12.60
2019-01-27T21:55:09.597Z,13.40
2019-01-27T21:57:39.025Z,12.10
2019-01-27T22:00:11.786Z,13.00
2019-01-27T22:02:41.257Z,12.73
2019-01-27T22:05:10.676Z,12.03
2019-01-27T22:07:40.143Z,12.50
2019-01-27T22:10:16.942Z,13.10
2019-01-27T22:12:46.362Z,12.53
2019-01-27T22:15:15.867Z,12.83
2019-01-27T22:17:45.345Z,12.33
2019-01-27T22:20:15.047Z,12.40
2019-01-27T22:22:44.452Z,11.77
2019-01-27T22:25:29.651Z,11.80
2019-01-27T22:28:08.042Z,11.97
2019-01-27T22:30:37.496Z,11.90
2019-01-27T22:33:06.995Z,11.93
2019-01-27T22:35:36.412Z,10.93
2019-01-27T22:38:06.101Z,12.23
2019-01-27T22:40:35.521Z,11.77
2019-01-27T22:43:04.979Z,11.20
2019-01-27T22:45:34.389Z,11.03
2019-01-27T22:48:06.746Z,11.50
2019-01-27T22:50:55.548Z,10.03
2019-01-27T22:53:25.026Z,10.20
2019-01-27T22:55:54.484Z,10.50
2019-01-27T22:58:28.649Z,10.17
2019-01-27T23:01:00.448Z,9.70
2019-01-27T23:03:31.550Z,9.93
2019-01-27T23:06:00.989Z,9.67
2019-01-27T23:08:30.512Z,9.53
2019-01-27T23:10:59.990Z,10.40
2019-01-27T23:13:36.728Z,10.00
2019-01-27T23:16:06.127Z,9.90
2019-01-27T23:18:44.545Z,9.87
2019-01-27T23:21:17.173Z,10.03
2019-01-27T23:23:47.381Z,9.77
2019-01-27T23:26:16.761Z,10.10
2019-01-27T23:28:46.179Z,9.67
2019-01-27T23:31:15.596Z,9.83
2019-01-27T23:33:45.065Z,8.93
2019-01-27T23:36:26.713Z,9.83
2019-01-27T23:38:56.553Z,9.53
2019-01-27T23:41:25.981Z,9.37
2019-01-27T23:44:04.210Z,8.80
2019-01-27T23:46:36.250Z,8.43
2019-01-27T23:49:05.675Z,9.47
2019-01-27T23:51:35.058Z,9.63
2019-01-27T23:54:04.542Z,9.27
2019-01-27T23:56:44.903Z,10.13
2019-01-27T23:59:14.330Z,9.43
